Time;durP1;ratioP1;P1;durP2;ratioP2;P2;SDS_P1;SDS_P2;PMS_P1;PMS_P2;Temp;Humidity;BMP_temperature;BMP_pressure;BME280_temperature;BME280_humidity;BME280_pressure;Samples;Min_cycle;Max_cycle;Signal;HPM_P1;HPM_P2
2022/07/31 00:01:55;;;;;;;23.97;22.53;;;;;;;;;;5014322;28;20462;-79
2022/07/31 00:04:24;;;;;;;24.63;22.80;;;;;;;;;;5014374;28;20439;-79
2022/07/31 00:06:51;;;;;;;23.67;22.27;;;;;;;;;;5014447;28;20447;-80
2022/07/31 00:09:19;;;;;;;23.57;22.27;;;;;;;;;;5014229;28;20798;-80
2022/07/31 00:11:46;;;;;;;23.43;21.90;;;;;;;;;;5014106;28;20446;-79
2022/07/31 00:14:13;;;;;;;23.67;22.27;;;;;;;;;;5014160;28;20450;-79
2022/07/31 00:16:41;;;;;;;22.93;21.63;;;;;;;;;;5013990;28;20495;-79
2022/07/31 00:19:08;;;;;;;23.80;22.40;;;;;;;;;;5014123;28;20426;-80
2022/07/31 00:21:37;;;;;;;23.47;22.17;;;;;;;;;;5014019;28;20440;-79
2022/07/31 00:24:04;;;;;;;23.30;22.00;;;;;;;;;;5014165;28;20451;-79
2022/07/31 00:26:32;;;;;;;24.13;22.60;;;;;;;;;;5013346;28;20453;-79
2022/07/31 00:28:59;;;;;;;23.20;21.90;;;;;;;;;;5013518;28;20447;-79
2022/07/31 00:31:27;;;;;;;24.60;22.70;;;;;;;;;;5013555;28;20441;-80
2022/07/31 00:33:54;;;;;;;23.93;22.47;;;;;;;;;;5013418;28;20447;-79
2022/07/31 00:36:21;;;;;;;24.57;23.20;;;;;;;;;;5013439;28;20457;-79
2022/07/31 00:38:50;;;;;;;25.70;23.47;;;;;;;;;;5012128;28;20452;-79
2022/07/31 00:41:17;;;;;;;24.13;22.73;;;;;;;;;;5013627;28;20460;-79
2022/07/31 00:43:45;;;;;;;24.23;22.93;;;;;;;;;;5013338;28;20431;-79
2022/07/31 00:46:12;;;;;;;25.63;23.83;;;;;;;;;;5013181;28;20419;-79
2022/07/31 00:48:39;;;;;;;23.40;22.13;;;;;;;;;;5013234;28;20457;-79
2022/07/31 00:51:07;;;;;;;25.17;23.33;;;;;;;;;;5013253;28;20838;-79
2022/07/31 00:53:34;;;;;;;24.47;23.07;;;;;;;;;;5013487;28;20413;-79
2022/07/31 00:56:03;;;;;;;23.50;22.27;;;;;;;;;;5013256;28;20483;-80
2022/07/31 00:58:30;;;;;;;24.20;22.80;;;;;;;;;;5013432;28;20420;-80
2022/07/31 01:00:58;;;;;;;24.00;22.43;;;;;;;;;;5013375;28;20478;-79
2022/07/31 01:03:25;;;;;;;23.93;22.53;;;;;;;;;;5012971;28;20422;-79
2022/07/31 01:05:53;;;;;;;24.07;22.77;;;;;;;;;;5013353;28;20443;-79
2022/07/31 01:08:20;;;;;;;24.60;23.00;;;;;;;;;;5013290;28;20441;-79
2022/07/31 01:10:50;;;;;;;22.80;21.60;;;;;;;;;;5012973;28;20446;-79
2022/07/31 01:13:22;;;;;;;23.77;22.27;;;;;;;;;;5013037;28;20466;-80
2022/07/31 01:15:49;;;;;;;24.23;22.43;;;;;;;;;;5012792;28;20974;-80
2022/07/31 01:18:17;;;;;;;24.50;23.10;;;;;;;;;;5013224;28;20428;-79
2022/07/31 01:20:46;;;;;;;23.73;22.33;;;;;;;;;;5013141;28;20521;-79
2022/07/31 01:23:34;;;;;;;24.20;22.63;;;;;;;;;;5012769;28;20428;-79
2022/07/31 01:26:07;;;;;;;24.50;23.17;;;;;;;;;;4995615;28;20486;-80
2022/07/31 01:28:52;;;;;;;24.40;22.93;;;;;;;;;;5013001;28;20439;-80
2022/07/31 01:31:24;;;;;;;24.13;22.77;;;;;;;;;;5006054;28;20437;-79
2022/07/31 01:33:53;;;;;;;23.00;21.60;;;;;;;;;;5013345;28;20420;-80
2022/07/31 01:36:22;;;;;;;25.03;23.40;;;;;;;;;;5012628;28;20460;-79
2022/07/31 01:38:51;;;;;;;23.37;21.97;;;;;;;;;;5012901;28;20441;-80
2022/07/31 01:41:20;;;;;;;23.17;21.87;;;;;;;;;;5012536;28;20441;-79
2022/07/31 01:43:49;;;;;;;23.80;22.50;;;;;;;;;;5012799;28;20808;-80
2022/07/31 01:46:18;;;;;;;23.73;22.33;;;;;;;;;;5013033;28;20425;-79
2022/07/31 01:48:49;;;;;;;23.77;22.47;;;;;;;;;;5012856;28;20465;-80
2022/07/31 01:51:17;;;;;;;23.63;22.23;;;;;;;;;;5011734;28;20446;-79
2022/07/31 01:53:47;;;;;;;23.97;22.47;;;;;;;;;;5012878;28;20438;-79
2022/07/31 01:56:17;;;;;;;23.20;21.90;;;;;;;;;;5012833;28;20455;-79
2022/07/31 01:58:45;;;;;;;22.67;21.47;;;;;;;;;;5015980;28;20441;-79
2022/07/31 02:01:14;;;;;;;23.93;22.53;;;;;;;;;;5016528;28;20407;-79
2022/07/31 02:03:42;;;;;;;23.00;21.60;;;;;;;;;;5016190;28;20451;-79
2022/07/31 02:06:11;;;;;;;22.97;21.50;;;;;;;;;;5016453;28;20446;-80
2022/07/31 02:08:39;;;;;;;24.50;23.10;;;;;;;;;;5016488;28;20416;-79
2022/07/31 02:11:06;;;;;;;23.77;22.47;;;;;;;;;;5016561;28;20420;-80
2022/07/31 02:13:34;;;;;;;24.27;22.90;;;;;;;;;;5016175;28;20445;-79
2022/07/31 02:16:02;;;;;;;24.30;22.63;;;;;;;;;;5016162;28;20497;-79
2022/07/31 02:18:29;;;;;;;24.90;23.40;;;;;;;;;;5016320;28;20790;-79
2022/07/31 02:20:58;;;;;;;24.87;23.43;;;;;;;;;;5016245;28;20429;-80
2022/07/31 02:23:27;;;;;;;24.30;22.70;;;;;;;;;;5015863;28;20445;-80
2022/07/31 02:25:55;;;;;;;24.10;22.70;;;;;;;;;;5015838;28;20463;-79
2022/07/31 02:28:22;;;;;;;25.07;23.67;;;;;;;;;;5015752;28;21006;-80
2022/07/31 02:30:51;;;;;;;24.67;23.27;;;;;;;;;;5016118;28;20447;-79
2022/07/31 02:33:20;;;;;;;24.43;22.50;;;;;;;;;;5015729;28;20412;-79
2022/07/31 02:35:49;;;;;;;24.20;22.77;;;;;;;;;;5015915;28;20478;-78
2022/07/31 02:38:17;;;;;;;24.27;22.87;;;;;;;;;;5014386;28;20534;-80
2022/07/31 02:40:46;;;;;;;24.00;22.50;;;;;;;;;;5015794;28;20446;-79
2022/07/31 02:43:14;;;;;;;23.87;22.37;;;;;;;;;;5015522;28;20930;-79
2022/07/31 02:45:44;;;;;;;23.97;22.47;;;;;;;;;;5015773;28;20478;-79
2022/07/31 02:48:11;;;;;;;23.83;22.57;;;;;;;;;;5015634;28;20819;-80
2022/07/31 02:50:39;;;;;;;23.43;22.10;;;;;;;;;;5015718;28;20812;-79
2022/07/31 02:53:06;;;;;;;23.43;22.00;;;;;;;;;;5015573;28;20479;-80
2022/07/31 02:55:34;;;;;;;22.80;21.60;;;;;;;;;;5015470;28;20438;-80
2022/07/31 02:58:03;;;;;;;24.13;22.60;;;;;;;;;;5014052;28;20504;-79
2022/07/31 03:00:31;;;;;;;24.07;22.43;;;;;;;;;;5015530;28;20438;-79
2022/07/31 03:02:59;;;;;;;23.77;22.17;;;;;;;;;;5015138;28;20907;-80
2022/07/31 03:05:26;;;;;;;24.30;22.80;;;;;;;;;;5015084;28;20416;-80
2022/07/31 03:07:53;;;;;;;24.17;22.37;;;;;;;;;;5014006;28;20424;-79
2022/07/31 03:10:21;;;;;;;24.70;23.00;;;;;;;;;;5014348;28;20416;-79
2022/07/31 03:12:49;;;;;;;24.23;22.83;;;;;;;;;;5014981;28;20503;-79
2022/07/31 03:15:23;;;;;;;23.80;22.27;;;;;;;;;;5015126;28;20465;-80
2022/07/31 03:17:50;;;;;;;23.47;22.10;;;;;;;;;;5015064;28;20982;-79
2022/07/31 03:20:18;;;;;;;24.43;22.83;;;;;;;;;;5015103;28;20454;-79
2022/07/31 03:22:46;;;;;;;24.23;22.43;;;;;;;;;;5014797;28;20446;-79
2022/07/31 03:25:13;;;;;;;24.20;22.70;;;;;;;;;;5014621;28;20748;-79
2022/07/31 03:27:41;;;;;;;23.20;21.60;;;;;;;;;;5014616;28;20484;-79
2022/07/31 03:30:17;;;;;;;23.37;21.87;;;;;;;;;;5014622;28;20475;-80
2022/07/31 03:32:46;;;;;;;23.13;21.93;;;;;;;;;;5015031;28;20439;-80
2022/07/31 03:35:13;;;;;;;23.30;21.90;;;;;;;;;;5014642;28;20441;-79
2022/07/31 03:37:40;;;;;;;23.30;22.00;;;;;;;;;;5014809;28;20485;-80
2022/07/31 03:40:08;;;;;;;23.30;21.70;;;;;;;;;;5014711;28;20428;-79
2022/07/31 03:42:36;;;;;;;23.00;21.70;;;;;;;;;;5013129;28;20509;-79
2022/07/31 03:45:04;;;;;;;22.57;21.27;;;;;;;;;;5014212;28;20758;-79
2022/07/31 03:47:31;;;;;;;23.20;21.60;;;;;;;;;;5014545;28;20456;-80
2022/07/31 03:50:01;;;;;;;23.60;22.20;;;;;;;;;;5014554;28;20431;-79
2022/07/31 03:52:29;;;;;;;22.07;20.77;;;;;;;;;;5013309;28;20455;-83
2022/07/31 03:54:56;;;;;;;23.40;21.67;;;;;;;;;;5013362;28;20458;-79
2022/07/31 03:57:24;;;;;;;22.37;21.17;;;;;;;;;;5014051;28;20465;-79
2022/07/31 03:59:55;;;;;;;22.50;21.20;;;;;;;;;;5014495;28;20463;-78
2022/07/31 04:02:22;;;;;;;22.03;20.63;;;;;;;;;;5013946;28;20862;-79
2022/07/31 04:04:49;;;;;;;23.10;21.80;;;;;;;;;;5014325;28;20459;-79
2022/07/31 04:07:18;;;;;;;22.70;21.50;;;;;;;;;;5013883;28;20447;-79
2022/07/31 04:09:45;;;;;;;22.53;21.10;;;;;;;;;;5013673;28;20424;-78
2022/07/31 04:12:13;;;;;;;23.17;21.57;;;;;;;;;;5013802;28;20422;-78
2022/07/31 04:14:40;;;;;;;22.93;21.60;;;;;;;;;;5013814;28;20421;-77
2022/07/31 04:17:07;;;;;;;22.20;20.90;;;;;;;;;;5013630;28;20469;-78
2022/07/31 04:19:35;;;;;;;22.00;20.50;;;;;;;;;;5013862;28;20415;-78
2022/07/31 04:22:02;;;;;;;22.73;21.53;;;;;;;;;;5013597;28;20474;-77
2022/07/31 04:24:31;;;;;;;21.90;20.80;;;;;;;;;;5013814;28;20445;-78
2022/07/31 04:26:59;;;;;;;23.03;21.83;;;;;;;;;;5013599;28;20457;-77
2022/07/31 04:29:27;;;;;;;22.63;21.30;;;;;;;;;;5013576;28;20504;-85
2022/07/31 04:31:55;;;;;;;22.87;21.47;;;;;;;;;;5013730;28;20429;-77
2022/07/31 04:34:22;;;;;;;22.30;20.70;;;;;;;;;;5013827;28;20440;-77
2022/07/31 04:36:49;;;;;;;23.33;21.67;;;;;;;;;;5013165;28;20460;-77
2022/07/31 04:39:17;;;;;;;24.70;23.00;;;;;;;;;;5013730;28;20449;-78
2022/07/31 04:41:45;;;;;;;22.03;20.73;;;;;;;;;;5013204;28;20449;-77
2022/07/31 04:44:13;;;;;;;23.33;21.83;;;;;;;;;;5013377;28;20439;-77
2022/07/31 04:46:42;;;;;;;22.20;20.70;;;;;;;;;;5013244;28;20423;-77
2022/07/31 04:49:11;;;;;;;22.27;20.97;;;;;;;;;;5013486;28;20862;-78
2022/07/31 04:51:39;;;;;;;21.87;20.77;;;;;;;;;;5013455;28;20435;-78
2022/07/31 04:54:06;;;;;;;22.77;21.60;;;;;;;;;;5013598;28;20439;-77
2022/07/31 04:56:34;;;;;;;22.90;21.27;;;;;;;;;;5013072;28;20800;-77
2022/07/31 04:59:04;;;;;;;22.53;21.13;;;;;;;;;;5013024;28;20847;-78
2022/07/31 05:01:32;;;;;;;23.17;21.67;;;;;;;;;;5013063;28;20877;-77
2022/07/31 05:03:59;;;;;;;23.07;21.47;;;;;;;;;;5013328;28;20914;-78
2022/07/31 05:06:33;;;;;;;23.00;21.70;;;;;;;;;;5013039;28;20425;-78
2022/07/31 05:09:00;;;;;;;23.60;22.10;;;;;;;;;;5013280;28;20446;-78
2022/07/31 05:11:28;;;;;;;23.20;21.90;;;;;;;;;;5013349;28;20422;-77
2022/07/31 05:13:56;;;;;;;24.23;22.97;;;;;;;;;;5013232;28;20413;-79
2022/07/31 05:16:25;;;;;;;22.50;21.40;;;;;;;;;;5013060;28;20798;-77
2022/07/31 05:18:53;;;;;;;23.47;22.03;;;;;;;;;;5012853;28;20505;-78
2022/07/31 05:21:20;;;;;;;23.90;22.50;;;;;;;;;;5013044;28;20455;-79
2022/07/31 05:23:48;;;;;;;23.83;22.63;;;;;;;;;;5013131;28;20794;-78
2022/07/31 05:26:16;;;;;;;23.37;22.07;;;;;;;;;;5012374;28;20461;-77
2022/07/31 05:28:43;;;;;;;23.63;22.23;;;;;;;;;;5013271;28;20553;-78
2022/07/31 05:31:11;;;;;;;23.83;22.10;;;;;;;;;;5012854;28;20453;-78
2022/07/31 05:33:40;;;;;;;22.93;21.63;;;;;;;;;;5016099;28;20868;-83
2022/07/31 05:36:07;;;;;;;22.97;21.67;;;;;;;;;;5016138;28;20419;-81
2022/07/31 05:38:35;;;;;;;23.77;22.20;;;;;;;;;;5017151;28;20464;-84
2022/07/31 05:41:03;;;;;;;23.60;22.40;;;;;;;;;;5017369;28;20417;-78
2022/07/31 05:43:30;;;;;;;23.93;22.20;;;;;;;;;;5016961;28;20418;-80
2022/07/31 05:45:57;;;;;;;24.77;23.17;;;;;;;;;;5017014;28;20441;-84
2022/07/31 05:48:25;;;;;;;24.10;22.70;;;;;;;;;;5016877;28;20453;-79
2022/07/31 05:50:53;;;;;;;24.17;22.67;;;;;;;;;;5016901;28;20440;-80
2022/07/31 05:53:21;;;;;;;23.87;22.47;;;;;;;;;;5017021;28;20450;-81
2022/07/31 05:55:49;;;;;;;24.00;22.70;;;;;;;;;;5016464;28;20418;-79
2022/07/31 05:58:17;;;;;;;23.73;22.50;;;;;;;;;;5016858;28;20483;-80
2022/07/31 06:00:45;;;;;;;23.20;21.90;;;;;;;;;;5020676;28;20413;-80
2022/07/31 06:03:13;;;;;;;23.30;21.80;;;;;;;;;;5036298;28;20417;-80
2022/07/31 06:05:40;;;;;;;23.67;22.37;;;;;;;;;;5036331;28;20466;-80
2022/07/31 06:08:10;;;;;;;23.17;21.87;;;;;;;;;;5035954;28;20838;-80
2022/07/31 06:10:37;;;;;;;24.20;22.70;;;;;;;;;;5035933;28;20450;-80
2022/07/31 06:13:05;;;;;;;23.70;22.20;;;;;;;;;;5036427;28;20805;-89
2022/07/31 06:15:33;;;;;;;24.47;22.97;;;;;;;;;;5035921;28;20420;-80
2022/07/31 06:18:00;;;;;;;24.00;22.40;;;;;;;;;;5036137;28;20459;-80
2022/07/31 06:20:28;;;;;;;25.17;23.40;;;;;;;;;;5036065;28;20428;-86
2022/07/31 06:22:55;;;;;;;25.27;23.57;;;;;;;;;;5036083;28;20410;-80
2022/07/31 06:25:25;;;;;;;24.10;22.70;;;;;;;;;;5035553;28;20945;-80
2022/07/31 06:27:52;;;;;;;23.37;22.07;;;;;;;;;;5035545;28;20903;-80
2022/07/31 06:30:19;;;;;;;24.83;23.27;;;;;;;;;;5030192;28;20461;-80
2022/07/31 06:32:47;;;;;;;23.87;22.57;;;;;;;;;;5035341;28;20456;-80
2022/07/31 06:35:14;;;;;;;24.77;23.30;;;;;;;;;;5035157;28;20413;-82
2022/07/31 06:37:41;;;;;;;24.37;22.97;;;;;;;;;;5034879;28;21017;-94
2022/07/31 06:40:09;;;;;;;24.93;23.43;;;;;;;;;;5034800;28;20458;-80
2022/07/31 06:42:38;;;;;;;25.33;23.73;;;;;;;;;;5034728;28;20413;-81
2022/07/31 06:45:06;;;;;;;24.93;23.53;;;;;;;;;;5034908;28;20423;-81
2022/07/31 06:47:33;;;;;;;24.37;22.97;;;;;;;;;;5034757;28;20461;-80
2022/07/31 06:50:00;;;;;;;24.07;22.63;;;;;;;;;;5033571;28;20447;-81
2022/07/31 06:52:28;;;;;;;25.03;23.63;;;;;;;;;;5035078;28;20432;-80
2022/07/31 06:54:55;;;;;;;24.50;23.00;;;;;;;;;;5034898;28;20952;-80
2022/07/31 06:57:22;;;;;;;24.60;23.13;;;;;;;;;;5035329;28;20497;-80
2022/07/31 06:59:51;;;;;;;23.93;22.63;;;;;;;;;;5035030;28;20417;-80
2022/07/31 07:02:18;;;;;;;23.63;22.33;;;;;;;;;;5035171;28;20426;-81
2022/07/31 07:04:46;;;;;;;23.63;22.33;;;;;;;;;;5035055;28;20443;-81
2022/07/31 07:07:13;;;;;;;23.27;21.80;;;;;;;;;;5035205;28;20450;-80
2022/07/31 07:09:40;;;;;;;22.67;21.43;;;;;;;;;;5035087;28;20648;-81
2022/07/31 07:12:08;;;;;;;23.33;21.80;;;;;;;;;;5034743;28;20755;-80
2022/07/31 07:14:35;;;;;;;23.27;21.67;;;;;;;;;;5035092;28;20435;-76
2022/07/31 07:17:05;;;;;;;22.53;21.33;;;;;;;;;;5035121;28;20981;-82
2022/07/31 07:19:32;;;;;;;23.83;22.43;;;;;;;;;;5035878;28;20449;-85
2022/07/31 07:22:00;;;;;;;22.40;21.20;;;;;;;;;;5035094;28;20406;-77
2022/07/31 07:24:27;;;;;;;23.43;21.93;;;;;;;;;;5034477;28;20439;-77
2022/07/31 07:26:54;;;;;;;23.13;21.63;;;;;;;;;;5033708;28;20993;-78
2022/07/31 07:29:23;;;;;;;22.37;21.17;;;;;;;;;;5034622;28;20417;-77
2022/07/31 07:31:50;;;;;;;22.80;21.50;;;;;;;;;;5034735;28;20420;-78
2022/07/31 07:34:19;;;;;;;22.60;21.40;;;;;;;;;;5034521;28;20455;-78
2022/07/31 07:36:46;;;;;;;22.30;20.90;;;;;;;;;;5034603;28;20442;-79
2022/07/31 07:39:14;;;;;;;22.20;21.00;;;;;;;;;;5034160;28;20468;-77
2022/07/31 07:41:41;;;;;;;23.03;21.63;;;;;;;;;;5034514;28;20447;-78
2022/07/31 07:44:08;;;;;;;23.73;22.30;;;;;;;;;;5034423;28;20837;-77
2022/07/31 07:46:36;;;;;;;26.20;23.50;;;;;;;;;;5033978;28;20470;-79
2022/07/31 07:49:03;;;;;;;22.43;21.33;;;;;;;;;;5034477;28;20783;-78
2022/07/31 07:51:32;;;;;;;22.70;21.30;;;;;;;;;;5034177;28;20908;-78
2022/07/31 07:54:02;;;;;;;23.17;21.87;;;;;;;;;;5034056;28;20418;-79
2022/07/31 07:56:29;;;;;;;22.90;21.60;;;;;;;;;;5033412;28;20415;-81
2022/07/31 07:58:57;;;;;;;22.60;21.30;;;;;;;;;;5034244;28;20472;-78
2022/07/31 08:01:25;;;;;;;23.20;21.87;;;;;;;;;;5034751;28;20417;-82
2022/07/31 08:03:52;;;;;;;22.87;21.57;;;;;;;;;;5034567;28;20421;-87
2022/07/31 08:06:21;;;;;;;23.07;21.67;;;;;;;;;;5033880;28;20442;-80
2022/07/31 08:08:50;;;;;;;22.77;21.37;;;;;;;;;;5032501;28;20452;-78
2022/07/31 08:11:18;;;;;;;22.60;21.03;;;;;;;;;;5027354;28;20419;-78
2022/07/31 08:13:45;;;;;;;22.40;21.03;;;;;;;;;;5013811;28;20444;-78
2022/07/31 08:16:13;;;;;;;23.17;21.67;;;;;;;;;;5013864;28;20452;-78
2022/07/31 08:18:40;;;;;;;22.20;20.90;;;;;;;;;;5013899;28;20467;-74
2022/07/31 08:21:07;;;;;;;24.03;22.43;;;;;;;;;;5013671;28;20912;-78
2022/07/31 08:23:36;;;;;;;22.80;21.40;;;;;;;;;;5013688;28;20881;-78
2022/07/31 08:26:07;;;;;;;24.10;22.70;;;;;;;;;;5013479;28;20810;-78
2022/07/31 08:28:34;;;;;;;23.23;21.93;;;;;;;;;;5013454;28;20772;-78
2022/07/31 08:31:02;;;;;;;23.00;21.70;;;;;;;;;;5013892;28;20436;-78
2022/07/31 08:33:29;;;;;;;22.60;21.30;;;;;;;;;;5013574;28;20901;-78
2022/07/31 08:35:56;;;;;;;24.10;22.77;;;;;;;;;;5013802;28;20431;-78
2022/07/31 08:38:24;;;;;;;23.50;22.20;;;;;;;;;;5013341;28;20466;-77
2022/07/31 08:40:51;;;;;;;23.40;22.00;;;;;;;;;;5013731;28;20441;-78
2022/07/31 08:43:20;;;;;;;22.50;21.10;;;;;;;;;;5013517;28;20989;-78
2022/07/31 08:45:48;;;;;;;23.40;22.10;;;;;;;;;;5013641;28;20468;-78
2022/07/31 08:48:17;;;;;;;23.90;22.60;;;;;;;;;;5013283;28;20415;-79
2022/07/31 08:50:45;;;;;;;24.17;22.77;;;;;;;;;;5013440;28;20768;-78
2022/07/31 08:53:15;;;;;;;25.30;23.57;;;;;;;;;;5013251;28;20444;-79
2022/07/31 08:55:44;;;;;;;25.97;24.30;;;;;;;;;;5013360;28;20825;-79
2022/07/31 08:58:11;;;;;;;23.90;22.60;;;;;;;;;;5013387;28;20567;-79
2022/07/31 09:00:41;;;;;;;24.90;23.50;;;;;;;;;;5013234;28;20411;-80
2022/07/31 09:03:09;;;;;;;24.90;23.37;;;;;;;;;;5013108;28;20414;-78
2022/07/31 09:05:38;;;;;;;24.30;22.90;;;;;;;;;;5013313;28;20445;-78
2022/07/31 09:08:06;;;;;;;24.50;23.20;;;;;;;;;;5013225;28;20489;-78
2022/07/31 09:10:33;;;;;;;25.30;23.37;;;;;;;;;;5013231;28;20453;-75
2022/07/31 09:13:01;;;;;;;23.00;21.70;;;;;;;;;;5012980;28;20412;-78
2022/07/31 09:15:29;;;;;;;24.60;23.10;;;;;;;;;;5013024;28;20449;-80
2022/07/31 09:17:58;;;;;;;23.33;21.90;;;;;;;;;;5012839;28;20949;-78
2022/07/31 09:20:26;;;;;;;23.03;21.83;;;;;;;;;;5013154;28;20477;-78
2022/07/31 09:23:04;;;;;;;23.80;22.40;;;;;;;;;;5012931;28;20411;-78
2022/07/31 09:25:31;;;;;;;24.43;23.03;;;;;;;;;;5013329;28;20456;-78
2022/07/31 09:28:01;;;;;;;23.53;21.80;;;;;;;;;;5013118;28;20436;-78
2022/07/31 09:30:29;;;;;;;23.60;22.30;;;;;;;;;;5013240;28;20416;-78
2022/07/31 09:33:12;;;;;;;23.37;22.10;;;;;;;;;;5012724;28;20437;-77
2022/07/31 09:35:47;;;;;;;23.20;21.90;;;;;;;;;;5012869;28;20515;-78
2022/07/31 09:38:14;;;;;;;23.70;22.20;;;;;;;;;;5012573;28;20462;-78
2022/07/31 09:40:43;;;;;;;23.20;21.80;;;;;;;;;;5012847;28;20450;-78
2022/07/31 09:43:15;;;;;;;23.23;21.93;;;;;;;;;;5012791;28;20432;-78
2022/07/31 09:45:44;;;;;;;24.37;23.00;;;;;;;;;;5012864;28;20462;-77
2022/07/31 09:48:13;;;;;;;24.50;23.00;;;;;;;;;;5012943;28;20829;-85
2022/07/31 09:50:41;;;;;;;24.40;23.10;;;;;;;;;;5013064;28;20449;-77
2022/07/31 09:53:08;;;;;;;23.97;22.60;;;;;;;;;;5012799;28;20452;-77
2022/07/31 09:55:36;;;;;;;24.73;23.23;;;;;;;;;;5013150;28;20873;-75
2022/07/31 09:58:03;;;;;;;24.47;22.97;;;;;;;;;;5012101;28;20483;-76
2022/07/31 10:00:31;;;;;;;24.40;22.90;;;;;;;;;;5012351;28;20923;-75
2022/07/31 10:02:58;;;;;;;23.77;22.37;;;;;;;;;;5012421;28;20922;-76
2022/07/31 10:05:27;;;;;;;38.87;36.17;;;;;;;;;;5011126;28;20976;-76
2022/07/31 10:07:56;;;;;;;25.00;23.53;;;;;;;;;;5012265;28;20941;-77
2022/07/31 10:10:24;;;;;;;24.50;23.00;;;;;;;;;;5012235;28;20438;-75
2022/07/31 10:12:53;;;;;;;24.27;22.87;;;;;;;;;;5012918;28;20777;-77
2022/07/31 10:15:21;;;;;;;24.97;23.30;;;;;;;;;;5015178;28;20430;-92
2022/07/31 10:17:50;;;;;;;24.60;23.23;;;;;;;;;;5013787;28;20426;-87
2022/07/31 10:20:20;;;;;;;24.73;23.23;;;;;;;;;;5018133;28;20441;-88
2022/07/31 10:22:51;;;;;;;30.60;28.60;;;;;;;;;;5017205;28;20463;-87
2022/07/31 10:25:21;;;;;;;25.73;24.13;;;;;;;;;;5016754;28;20465;-84
2022/07/31 10:27:50;;;;;;;26.73;25.20;;;;;;;;;;5016957;28;20938;-86
2022/07/31 10:30:17;;;;;;;26.63;25.00;;;;;;;;;;5017480;28;20552;-87
2022/07/31 10:32:45;;;;;;;24.77;23.10;;;;;;;;;;5017368;28;20419;-84
2022/07/31 10:35:13;;;;;;;24.03;22.63;;;;;;;;;;5016314;28;20412;-84
2022/07/31 10:37:43;;;;;;;25.23;23.73;;;;;;;;;;5016401;28;20435;-84
2022/07/31 10:40:20;;;;;;;25.33;23.93;;;;;;;;;;5015774;28;20864;-82
2022/07/31 10:42:50;;;;;;;26.80;25.30;;;;;;;;;;5015891;28;20407;-82
2022/07/31 10:45:17;;;;;;;26.30;24.80;;;;;;;;;;5015482;28;20477;-82
2022/07/31 10:47:55;;;;;;;24.90;23.50;;;;;;;;;;5016015;28;20450;-82
2022/07/31 10:50:23;;;;;;;25.40;23.80;;;;;;;;;;5015536;28;20419;-83
2022/07/31 10:52:50;;;;;;;27.17;25.47;;;;;;;;;;5015981;28;20445;-83
2022/07/31 10:55:21;;;;;;;29.10;27.33;;;;;;;;;;5015723;28;20422;-83
2022/07/31 10:57:50;;;;;;;27.23;25.50;;;;;;;;;;5015432;28;20416;-83
2022/07/31 11:00:19;;;;;;;23.37;22.17;;;;;;;;;;5015767;28;20457;-83
2022/07/31 11:02:46;;;;;;;28.40;26.60;;;;;;;;;;5014004;28;20431;-84
2022/07/31 11:05:15;;;;;;;25.43;23.83;;;;;;;;;;5015428;28;20429;-83
2022/07/31 11:07:43;;;;;;;30.27;28.23;;;;;;;;;;5015739;28;20443;-84
2022/07/31 11:10:14;;;;;;;26.00;24.50;;;;;;;;;;5015819;28;20444;-84
2022/07/31 11:12:43;;;;;;;22.80;21.60;;;;;;;;;;5018696;28;20446;-88
2022/07/31 11:15:20;;;;;;;22.20;21.00;;;;;;;;;;5014082;28;20447;-84
2022/07/31 11:17:48;;;;;;;25.30;23.93;;;;;;;;;;5015292;28;20450;-91
2022/07/31 11:20:23;;;;;;;25.70;24.20;;;;;;;;;;5014240;28;20500;-83
2022/07/31 11:22:54;;;;;;;29.50;27.60;;;;;;;;;;5015126;28;20951;-83
2022/07/31 11:25:22;;;;;;;23.27;21.97;;;;;;;;;;5015057;28;20906;-83
2022/07/31 11:27:51;;;;;;;31.80;29.70;;;;;;;;;;5014774;28;20480;-81
2022/07/31 11:30:18;;;;;;;24.63;23.33;;;;;;;;;;5013797;28;20427;-81
2022/07/31 11:32:49;;;;;;;27.30;25.63;;;;;;;;;;5015027;28;20424;-82
2022/07/31 11:35:27;;;;;;;24.83;23.50;;;;;;;;;;5014673;28;20415;-81
2022/07/31 11:37:55;;;;;;;25.50;24.10;;;;;;;;;;5014514;28;20934;-81
2022/07/31 11:40:22;;;;;;;24.67;23.17;;;;;;;;;;5014796;28;20471;-81
2022/07/31 11:42:51;;;;;;;24.57;23.10;;;;;;;;;;5014688;28;20446;-81
2022/07/31 11:45:18;;;;;;;24.83;23.43;;;;;;;;;;5014536;28;20416;-80
2022/07/31 11:47:46;;;;;;;24.97;23.47;;;;;;;;;;5014680;28;20422;-81
2022/07/31 11:50:14;;;;;;;25.80;24.30;;;;;;;;;;5014666;28;20417;-81
2022/07/31 11:52:43;;;;;;;26.17;24.67;;;;;;;;;;5014385;28;20784;-80
2022/07/31 11:55:12;;;;;;;24.77;23.27;;;;;;;;;;5014106;28;20426;-81
2022/07/31 11:57:40;;;;;;;25.27;23.73;;;;;;;;;;5014391;28;20421;-82
2022/07/31 12:00:10;;;;;;;25.83;24.40;;;;;;;;;;5014162;28;20491;-82
2022/07/31 12:02:40;;;;;;;24.63;23.23;;;;;;;;;;5014410;28;20446;-81
2022/07/31 12:05:11;;;;;;;25.87;24.30;;;;;;;;;;5014411;28;20442;-82
2022/07/31 12:07:39;;;;;;;25.60;24.20;;;;;;;;;;5028895;28;20834;-82
2022/07/31 12:10:08;;;;;;;26.80;25.00;;;;;;;;;;5014013;28;20447;-82
2022/07/31 12:12:35;;;;;;;25.77;24.07;;;;;;;;;;5014200;28;20455;-82
2022/07/31 12:15:13;;;;;;;25.60;24.20;;;;;;;;;;5014369;28;20419;-81
2022/07/31 12:17:42;;;;;;;26.10;24.60;;;;;;;;;;5014311;28;20479;-82
2022/07/31 12:20:10;;;;;;;25.57;24.07;;;;;;;;;;5014105;28;20493;-82
2022/07/31 12:22:37;;;;;;;24.07;22.60;;;;;;;;;;5013982;28;21231;-82
2022/07/31 12:25:08;;;;;;;23.90;22.50;;;;;;;;;;5012629;28;20832;-82
2022/07/31 12:27:36;;;;;;;25.40;23.90;;;;;;;;;;5013696;28;20537;-82
2022/07/31 12:30:13;;;;;;;25.10;23.70;;;;;;;;;;5014215;28;20413;-85
2022/07/31 12:32:42;;;;;;;23.80;22.50;;;;;;;;;;5014115;28;20436;-84
2022/07/31 12:35:09;;;;;;;22.93;21.53;;;;;;;;;;5014060;28;20405;-83
2022/07/31 12:37:46;;;;;;;23.30;22.00;;;;;;;;;;5013924;28;20413;-83
2022/07/31 12:40:24;;;;;;;23.77;22.37;;;;;;;;;;5013930;28;20535;-83
2022/07/31 12:42:51;;;;;;;24.93;23.53;;;;;;;;;;5013657;28;20997;-83
2022/07/31 12:45:29;;;;;;;23.90;22.60;;;;;;;;;;5013844;28;20411;-83
2022/07/31 12:47:57;;;;;;;23.80;22.60;;;;;;;;;;5014174;28;20407;-83
2022/07/31 12:50:26;;;;;;;23.60;22.30;;;;;;;;;;5013826;28;20418;-82
2022/07/31 12:52:53;;;;;;;24.10;22.80;;;;;;;;;;5013333;28;20408;-83
2022/07/31 12:55:21;;;;;;;24.77;23.30;;;;;;;;;;5013389;28;20414;-83
2022/07/31 12:57:48;;;;;;;24.17;22.87;;;;;;;;;;5013525;28;20450;-82
2022/07/31 13:00:17;;;;;;;23.60;22.27;;;;;;;;;;5013641;28;20484;-82
2022/07/31 13:02:44;;;;;;;24.40;23.10;;;;;;;;;;5013106;28;20910;-82
2022/07/31 13:05:13;;;;;;;24.87;23.47;;;;;;;;;;5013488;28;20426;-82
2022/07/31 13:07:40;;;;;;;25.30;23.80;;;;;;;;;;5013645;28;20458;-83
2022/07/31 13:10:08;;;;;;;24.93;23.57;;;;;;;;;;5013130;28;20540;-82
2022/07/31 13:12:36;;;;;;;24.50;23.07;;;;;;;;;;5013706;28;20439;-83
2022/07/31 13:15:03;;;;;;;24.20;22.77;;;;;;;;;;5013126;28;20415;-82
2022/07/31 13:17:30;;;;;;;24.27;22.87;;;;;;;;;;5013473;28;20850;-83
2022/07/31 13:19:58;;;;;;;23.77;22.43;;;;;;;;;;5013268;28;20459;-82
2022/07/31 13:22:26;;;;;;;23.67;22.47;;;;;;;;;;5012930;28;20502;-83
2022/07/31 13:24:54;;;;;;;23.03;21.67;;;;;;;;;;5012991;28;20762;-82
2022/07/31 13:27:21;;;;;;;22.70;21.40;;;;;;;;;;5011646;28;20463;-83
2022/07/31 13:29:48;;;;;;;23.93;22.63;;;;;;;;;;5012951;28;20412;-82
2022/07/31 13:32:16;;;;;;;23.93;22.50;;;;;;;;;;5012939;28;20410;-83
2022/07/31 13:34:43;;;;;;;24.37;22.87;;;;;;;;;;5013206;28;20409;-82
2022/07/31 13:37:10;;;;;;;24.70;23.30;;;;;;;;;;5012895;28;20438;-82
2022/07/31 13:39:39;;;;;;;23.37;22.17;;;;;;;;;;5013313;28;20476;-83
2022/07/31 13:42:07;;;;;;;24.80;23.50;;;;;;;;;;5028122;28;20429;-81
2022/07/31 13:44:34;;;;;;;24.90;23.40;;;;;;;;;;5012829;28;20454;-83
2022/07/31 13:47:01;;;;;;;24.67;23.27;;;;;;;;;;5013053;28;20416;-82
2022/07/31 13:49:30;;;;;;;23.90;22.70;;;;;;;;;;5013065;28;20509;-82
2022/07/31 13:51:58;;;;;;;23.33;22.03;;;;;;;;;;5012819;28;20773;-82
2022/07/31 13:54:26;;;;;;;23.90;22.60;;;;;;;;;;5015333;28;20937;-82
2022/07/31 13:56:55;;;;;;;22.50;21.30;;;;;;;;;;5016572;28;20416;-82
2022/07/31 13:59:23;;;;;;;23.50;22.10;;;;;;;;;;5016722;28;20463;-82
2022/07/31 14:01:53;;;;;;;23.20;21.90;;;;;;;;;;5016454;28;20547;-82
2022/07/31 14:04:20;;;;;;;25.43;24.03;;;;;;;;;;5016376;28;20503;-82
2022/07/31 14:06:48;;;;;;;23.57;22.27;;;;;;;;;;5016544;28;20769;-82
2022/07/31 14:09:15;;;;;;;21.90;20.70;;;;;;;;;;5015150;28;20962;-82
2022/07/31 14:11:43;;;;;;;23.90;22.60;;;;;;;;;;5016558;28;20946;-82
2022/07/31 14:14:12;;;;;;;23.37;22.17;;;;;;;;;;5016588;28;20447;-82
2022/07/31 14:16:40;;;;;;;23.67;22.30;;;;;;;;;;5016273;28;20498;-82
2022/07/31 14:19:08;;;;;;;23.70;22.30;;;;;;;;;;5016455;28;20483;-82
2022/07/31 14:21:35;;;;;;;24.70;23.20;;;;;;;;;;5014835;28;20792;-82
2022/07/31 14:24:03;;;;;;;24.70;23.40;;;;;;;;;;5016524;28;20798;-82